Oslo Bulk 1 — 9V8766 — position and weather

sailwx.info

Track history (hours):
 
Tides and Currents Weather Stations Pressure Air Temp Water Temp Dewpoint Dewpoint Depression Visibility Wind Speed Wind Dir Waves Ship Positions

Oslo Bulk 1

Last reported at 2016-Jan-18 13:33 UTC. Time now 2016-Feb-07 03:50 UTC.
Position N 21°51' E 113°18'.
Warning: this ship's position is 19 days out of date.

Length 108 m; draft 4.5 m.

Type: Ship. MMSI: 564010000.

Date/timePositionNaut miles runAvg speedWind from/ knotsBaromVisibWave heightAir tempDewpointWater temp
2016-Jan-18 13:33N 21°51' E 113°18'7 6.9
2016-Jan-18 12:33N 21°54' E 113°11'1211.6
2016-Jan-18 11:33N 22°04' E 113°05'  
2016-Jan-12 17:31N 22°08' E 113°06'7 7.4
2016-Jan-12 16:33N 22°01' E 113°05'7 7.1
2016-Jan-12 15:32N 21°55' E 113°10'4 4.5
2016-Jan-12 14:34N 21°52' E 113°13'4 4.3
2016-Jan-12 13:32N 21°49' E 113°16'0 0.1
2016-Jan-12 12:33N 21°49' E 113°16'0 0.0
2016-Jan-12 09:09N 21°49' E 113°16'0 0.0
2016-Jan-12 07:33N 21°49' E 113°16'0 0.0
2016-Jan-12 06:33N 21°49' E 113°16'0 0.0
2016-Jan-12 05:33N 21°49' E 113°16'0 0.0
2016-Jan-12 04:27N 21°49' E 113°16'0 0.0
2016-Jan-12 03:21N 21°49' E 113°16'0 0.0
2016-Jan-12 02:33N 21°49' E 113°16'0 0.0
2016-Jan-12 01:27N 21°49' E 113°16'0 0.0
2016-Jan-12 00:33N 21°49' E 113°16'0 0.0
2016-Jan-11 23:33N 21°49' E 113°16'0 0.0
2016-Jan-11 22:27N 21°49' E 113°16'0 0.0
2016-Jan-11 20:21N 21°49' E 113°16'0 0.0
2016-Jan-11 19:33N 21°49' E 113°16'0 0.0
2016-Jan-11 18:21N 21°49' E 113°16'0 0.0
2016-Jan-11 17:33N 21°49' E 113°16'0 0.1
2016-Jan-11 16:33N 21°49' E 113°16'0 0.0
2016-Jan-11 15:27N 21°49' E 113°16'0 0.0
2016-Jan-11 14:33N 21°49' E 113°16'0 0.0
2016-Jan-11 13:27N 21°49' E 113°16'0 0.0
2016-Jan-11 07:33N 21°49' E 113°16'0 0.0
2016-Jan-11 05:03N 21°49' E 113°16'0 0.0
2016-Jan-11 04:27N 21°49' E 113°16'0 0.0
2016-Jan-11 03:27N 21°49' E 113°16'  
Track history (hours):
 
Tides and Currents Weather Stations Pressure Air Temp Water Temp Dewpoint Dewpoint Depression Visibility Wind Speed Wind Dir Waves Ship Positions

Oslo Bulk 1

Last reported at 2016-Jan-18 13:33 UTC. Time now 2016-Feb-07 03:50 UTC.
Position N 21°51' E 113°18'.
Warning: this ship's position is 19 days out of date.

Length 108 m; draft 4.5 m.

Type: Ship. MMSI: 564010000.

Date/timePositionNaut miles runAvg speedWind from/ knotsBaromVisibWave heightAir tempDewpointWater temp
2016-Jan-18 13:33N 21°51' E 113°18'7 6.9
2016-Jan-18 12:33N 21°54' E 113°11'1211.6
2016-Jan-18 11:33N 22°04' E 113°05'  
2016-Jan-12 17:31N 22°08' E 113°06'7 7.4
2016-Jan-12 16:33N 22°01' E 113°05'7 7.1
2016-Jan-12 15:32N 21°55' E 113°10'4 4.5
2016-Jan-12 14:34N 21°52' E 113°13'4 4.3
2016-Jan-12 13:32N 21°49' E 113°16'0 0.1
2016-Jan-12 12:33N 21°49' E 113°16'0 0.0
2016-Jan-12 09:09N 21°49' E 113°16'0 0.0
2016-Jan-12 07:33N 21°49' E 113°16'0 0.0
2016-Jan-12 06:33N 21°49' E 113°16'0 0.0
2016-Jan-12 05:33N 21°49' E 113°16'0 0.0
2016-Jan-12 04:27N 21°49' E 113°16'0 0.0
2016-Jan-12 03:21N 21°49' E 113°16'0 0.0
2016-Jan-12 02:33N 21°49' E 113°16'0 0.0
2016-Jan-12 01:27N 21°49' E 113°16'0 0.0
2016-Jan-12 00:33N 21°49' E 113°16'0 0.0
2016-Jan-11 23:33N 21°49' E 113°16'0 0.0
2016-Jan-11 22:27N 21°49' E 113°16'0 0.0
2016-Jan-11 20:21N 21°49' E 113°16'0 0.0
2016-Jan-11 19:33N 21°49' E 113°16'0 0.0
2016-Jan-11 18:21N 21°49' E 113°16'0 0.0
2016-Jan-11 17:33N 21°49' E 113°16'0 0.1
2016-Jan-11 16:33N 21°49' E 113°16'0 0.0
2016-Jan-11 15:27N 21°49' E 113°16'0 0.0
2016-Jan-11 14:33N 21°49' E 113°16'0 0.0
2016-Jan-11 13:27N 21°49' E 113°16'0 0.0
2016-Jan-11 07:33N 21°49' E 113°16'0 0.0
2016-Jan-11 05:03N 21°49' E 113°16'0 0.0
2016-Jan-11 04:27N 21°49' E 113°16'0 0.0
2016-Jan-11 03:27N 21°49' E 113°16'  

Dump ship's entire track history